Data for 07/15/2005

Time Sea-Level Adjusted Pressure Absolute Pressure Temperature Relative Humidity Dew Point   
(mb) (inHg) (mb) (inHg) (C) (F) (%) (C) (F)
00:05 1022 30.18 851 25.13 17.8 64.1 45 5.7 42.3
00:10 1022 30.18 851 25.13 18 64.4 44 5.8 42.4
00:15 1022 30.18 851 25.13 18.4 65.1 46 6.7 44.1
00:20 1022 30.18 851 25.13 18.1 64.7 45 6.1 43
00:25 1022 30.18 851 25.13 17.8 64 47 6.4 43.5
00:30 1022 30.18 851 25.13 17.7 63.8 46 6.2 43.1
00:35 1022 30.18 851 25.13 17.7 63.8 46 6.1 43.1
00:40 1022 30.18 851 25.13 17.5 63.4 47 6 42.8
00:45 1022 30.18 851 25.13 17.5 63.5 45 5.7 42.2
00:50 1022 30.18 851 25.13 17.4 63.3 45 5.5 41.9
00:55 1022 30.18 851 25.13 17.4 63.4 48 6.5 43.7
01:00 1022 30.18 851 25.13 17.3 63.1 46 5.8 42.5
01:05 1022 30.18 851 25.13 17.3 63.1 45 5.5 41.8
01:10 1022 30.18 851 25.13 17.6 63.6 44 5.1 41.2
01:15 1022 30.18 851 25.13 17.9 64.3 44 5.6 42.1
01:20 1022 30.18 851 25.13 17.6 63.6 46 5.9 42.5
01:25 1022 30.18 851 25.13 17.4 63.3 46 5.9 42.6
01:30 1022 30.18 851 25.13 17.3 63.1 46 5.6 42.2
01:35 1022 30.18 851 25.13 17.6 63.6 44 5.4 41.7
01:40 1022 30.18 851 25.13 17.3 63.1 47 6 42.9
01:45 1022 30.18 851 25.13 17 62.6 47 5.7 42.3
01:50 1022 30.18 851 25.13 17.1 62.8 46 5.4 41.8
01:55 1022 30.18 851 25.13 17.2 63 46 5.6 42
02:00 1022 30.18 851 25.13 17.2 63 46 5.5 42
02:05 1021 30.15 851 25.13 17.1 62.8 48 6.3 43.3
02:10 1021 30.15 851 25.13 16.9 62.3 48 5.8 42.5
02:15 1021 30.15 851 25.13 16.5 61.8 48 5.5 41.9
02:20 1021 30.15 851 25.13 16.4 61.5 48 5.5 41.9
02:25 1021 30.15 851 25.13 16.1 60.9 50 5.7 42.2
02:30 1021 30.15 851 25.13 16 60.7 50 5.6 42.2
02:35 1021 30.15 851 25.13 15.9 60.6 48 5.1 41.2
02:40 1021 30.15 851 25.13 16.2 61.2 49 5.7 42.2
02:45 1021 30.15 851 25.13 16.2 61.1 50 5.8 42.5
02:50 1021 30.15 851 25.13 15.9 60.6 53 6.3 43.4
02:55 1021 30.15 851 25.13 15.9 60.7 51 5.8 42.5
03:00 1021 30.15 851 25.13 16 60.8 52 6.1 43
03:05 1021 30.15 851 25.13 16.1 60.9 50 5.6 42.1
03:10 1021 30.15 851 25.13 15.9 60.5 51 5.8 42.5
03:15 1021 30.15 851 25.13 15.6 60 55 6.5 43.7
03:20 1021 30.15 851 25.13 15.6 60 51 5.6 42.1
03:25 1021 30.15 851 25.13 15.6 60 50 5.3 41.6
03:30 1021 30.15 851 25.13 15.8 60.4 50 5.5 41.8
03:35 1021 30.15 851 25.13 15.9 60.6 51 5.9 42.6
03:40 1022 30.18 851 25.13 15.4 59.8 53 5.9 42.6
03:45 1021 30.15 851 25.13 15.1 59.2 53 5.7 42.3
03:50 1021 30.15 851 25.13 14.8 58.7 54 5.7 42.2
03:55 1021 30.15 851 25.13 14.7 58.4 54 5.5 41.8
04:00 1021 30.15 851 25.13 14.5 58.2 56 5.8 42.5
04:05 1021 30.15 851 25.13 14.5 58 56 5.8 42.5
04:10 1021 30.15 851 25.13 14 57.3 57 5.7 42.3
04:15 1021 30.15 851 25.13 13.8 56.9 59 6 42.7
04:20 1021 30.15 851 25.13 13.5 56.2 60 5.8 42.5
04:25 1021 30.15 851 25.13 13.5 56.3 58 5.4 41.8
04:30 1021 30.15 851 25.13 13.9 57 57 5.7 42.3
04:35 1021 30.15 851 25.13 14.2 57.6 55 5.3 41.6
04:40 1021 30.15 850 25.1 14.4 58 53 5.1 41.2
04:45 1021 30.15 850 25.1 14.4 58 55 5.4 41.8
04:50 1021 30.15 850 25.1 14.2 57.6 56 5.8 42.4
04:55 1021 30.15 850 25.1 14.3 57.7 54 5.3 41.6
05:00 1021 30.15 850 25.1 14.3 57.7 54 5.1 41.2
05:05 1021 30.15 850 25.1 14.5 58.2 54 5.5 41.8
05:10 1021 30.15 851 25.13 14.5 58.2 55 5.6 42.1
05:15 1021 30.15 851 25.13 14.4 58 55 5.5 41.9
05:20 1021 30.15 850 25.1 14.4 57.9 55 5.7 42.2
05:25 1021 30.15 850 25.1 14.3 57.7 56 5.7 42.2
05:30 1021 30.15 850 25.1 14.4 58 54 5.4 41.7
05:35 1021 30.15 851 25.13 14.4 57.8 56 5.8 42.4
05:40 1021 30.15 851 25.13 14.3 57.7 56 5.7 42.2
05:45 1021 30.15 851 25.13 14.1 57.4 56 5.5 41.8
05:50 1021 30.15 851 25.13 14.2 57.5 55 5.5 41.9
05:55 1021 30.15 851 25.13 14.1 57.3 57 5.7 42.2
06:00 1021 30.15 851 25.13 13.9 57 57 5.5 41.9
06:05 1021 30.15 851 25.13 14 57.2 57 5.6 42.1
06:10 1021 30.15 851 25.13 14.1 57.4 55 5.2 41.4
06:15 1021 30.15 851 25.13 14.3 57.8 54 5.4 41.7
06:20 1021 30.15 851 25.13 14.5 58.2 54 5.4 41.7
06:25 1021 30.15 851 25.13 14.7 58.5 53 5.3 41.6
06:30 1021 30.15 851 25.13 14.7 58.5 54 5.5 41.8
06:35 1021 30.15 851 25.13 14.6 58.3 55 5.7 42.3
06:40 1021 30.15 851 25.13 14.4 58 55 5.7 42.3
06:45 1021 30.15 851 25.13 14.3 57.8 57 6 42.9
06:50 1021 30.15 851 25.13 14.4 58 57 6.1 42.9
06:55 1021 30.15 851 25.13 14.7 58.5 57 6.3 43.3
07:00 1021 30.15 851 25.13 15 59 56 6.3 43.3
07:05 1021 30.15 851 25.13 15.3 59.5 54 6.1 43
07:10 1022 30.18 851 25.13 15.3 59.5 55 6.4 43.6
07:15 1022 30.18 851 25.13 15.3 59.5 57 7 44.6
07:20 1021 30.15 851 25.13 15.5 59.9 56 6.9 44.5
07:25 1021 30.15 851 25.13 15.9 60.6 55 7 44.5
07:30 1022 30.18 851 25.13 16.4 61.5 53 7 44.6
07:35 1022 30.18 851 25.13 16.6 62 53 7.1 44.8
07:40 1022 30.18 851 25.13 17 62.5 53 7.4 45.3
07:45 1022 30.18 851 25.13 17 62.5 56 8.3 47
07:50 1022 30.18 851 25.13 17.1 62.8 55 8 46.4
07:55 1022 30.18 851 25.13 17.5 63.5 54 8.2 46.7
08:00 1022 30.18 851 25.13 18 64.4 52 8.1 46.6
08:05 1022 30.18 851 25.13 18.3 64.9 52 8.4 47
08:10 1022 30.18 851 25.13 18.7 65.7 49 7.9 46.1
08:15 1022 30.18 851 25.13 19.1 66.5 48 8 46.4
08:20 1022 30.18 851 25.13 19.4 66.8 46 7.7 45.8
08:25 1021 30.15 851 25.13 20.1 68.3 45 8 46.4
08:30 1021 30.15 851 25.13 20.6 69.1 46 8.8 47.9
08:35 1021 30.15 851 25.13 20.9 69.5 42 7.6 45.7
08:40 1021 30.15 851 25.13 21.6 70.9 41 7.9 46.3
08:45 1021 30.15 851 25.13 21.5 70.6 43 8.4 47.2
08:50 1021 30.15 851 25.13 21.5 70.8 41 7.7 45.9
08:55 1021 30.15 850 25.1 21.9 71.4 41 8.2 46.8
09:00 1021 30.15 850 25.1 22.2 72 38 7.5 45.5
09:05 1021 30.15 851 25.13 22.8 73.1 37 7.4 45.3
09:10 1021 30.15 851 25.13 23.4 74.1 34 7 44.7
09:15 1021 30.15 850 25.1 23.5 74.4 34 7.2 44.9
09:20 1021 30.15 850 25.1 24 75.3 34 7.4 45.4
09:25 1021 30.15 850 25.1 24.1 75.5 33 7.2 45
09:30 1021 30.15 850 25.1 24.1 75.3 33 7.1 44.7
09:35 1021 30.15 850 25.1 23.9 75.1 33 6.7 44
09:40 1021 30.15 850 25.1 23.9 75 32 6.7 44
09:45 1021 30.15 850 25.1 23.8 74.9 32 6.4 43.5
09:50 1021 30.15 850 25.1 24.2 75.6 33 7.2 45
09:55 1021 30.15 850 25.1 24.6 76.3 34 7.9 46.2
10:00 1021 30.15 850 25.1 24.1 75.4 38 9 48.1
10:05 1021 30.15 850 25.1 23.1 73.5 39 8.6 47.4
10:10 1021 30.15 850 25.1 23.1 73.6 38 8.2 46.7
10:15 1021 30.15 850 25.1 23.9 75.1 37 8.7 47.6
10:20 1021 30.15 850 25.1 24.2 75.6 37 8.8 47.8
10:25 1021 30.15 850 25.1 23.6 74.5 37 8.4 47.1
10:30 1021 30.15 850 25.1 23.1 73.7 37 7.9 46.1
10:35 1021 30.15 850 25.1 22.8 73 36 7.1 44.7
10:40 1021 30.15 850 25.1 23 73.4 35 6.9 44.4
10:45 1021 30.15 850 25.1 23.9 75 33 6.7 44
10:50 1021 30.15 850 25.1 24.3 75.8 31 6.3 43.4
10:55 1021 30.15 850 25.1 24 75.3 30 5.7 42.2
11:00 1021 30.15 850 25.1 24.8 76.6 30 6.3 43.3
11:05 1021 30.15 850 25.1 25.6 78.1 29 6.7 44.1
11:10 1020 30.12 850 25.1 24.7 76.5 31 6.7 44
11:15 1020 30.12 850 25.1 25 77 29 6.2 43.2
11:20 1020 30.12 849 25.07 25.8 78.5 29 6.5 43.7
11:25 1020 30.12 849 25.07 26 78.8 28 6.5 43.7
11:30 1020 30.12 849 25.07 25.8 78.5 29 6.6 43.9
11:35 1020 30.12 849 25.07 25.6 78 28 6 42.7
11:40 1020 30.12 849 25.07 26.9 80.4 28 7.1 44.8
11:45 1020 30.12 849 25.07 27.2 81 27 7 44.6
11:50 1020 30.12 849 25.07 27.3 81.1 27 6.9 44.5
11:55 1020 30.12 849 25.07 26.8 80.3 27 6.4 43.6
12:00 1020 30.12 849 25.07 27.2 80.9 25 5.9 42.6
12:05 1020 30.12 849 25.07 27.6 81.7 26 6.5 43.7
12:10 1020 30.12 849 25.07 27.8 82 25 6.5 43.6
12:15 1020 30.12 849 25.07 28.3 82.9 25 6.6 43.9
12:20 1020 30.12 849 25.07 28.6 83.6 25 6.8 44.2
12:25 1020 30.12 849 25.07 28.7 83.7 25 7.1 44.8
12:30 1020 30.12 849 25.07 28 82.4 27 7.7 45.8
12:35 1020 30.12 849 25.07 27.3 81.1 28 7.7 45.8
12:40 1020 30.12 849 25.07 28 82.4 26 7.3 45.1
12:45 1020 30.12 849 25.07 28.1 82.5 26 7 44.7
12:50 1020 30.12 849 25.07 28.9 84 25 7 44.7
12:55 1020 30.12 849 25.07 29.1 84.4 23 6.4 43.6
13:00 1020 30.12 849 25.07 29.4 84.9 24 7.2 45
13:05 1020 30.12 849 25.07 29.7 85.5 21 5.6 42
13:10 1020 30.12 849 25.07 29.4 84.8 24 6.7 44.1
13:15 1020 30.12 849 25.07 29.1 84.3 23 6.3 43.3
13:20 1019 30.09 849 25.07 29.5 85 23 6.8 44.2
13:25 1019 30.09 849 25.07 29.4 85 22 5.9 42.7
13:30 1019 30.09 849 25.07 29.4 84.9 23 6.3 43.3
13:35 1019 30.09 848 25.04 29 84.2 23 6.2 43.1
13:40 1019 30.09 848 25.04 29.9 85.8 22 6.4 43.4
13:45 1019 30.09 848 25.04 30.7 87.2 22 6.7 44
13:50 1019 30.09 848 25.04 30.6 87.1 21 5.9 42.6
13:55 1019 30.09 848 25.04 31.2 88.1 21 6.8 44.3
14:00 1019 30.09 848 25.04 31 87.7 21 6.4 43.6
14:05 1019 30.09 848 25.04 31.3 88.4 21 6.5 43.7
14:10 1019 30.09 848 25.04 31.1 88 22 7.2 44.9
14:15 1019 30.09 848 25.04 31.9 89.3 21 7.2 44.9
14:20 1019 30.09 848 25.04 32.4 90.4 21 7.6 45.7
14:25 1019 30.09 848 25.04 33.1 91.6 19 7 44.6
14:30 1019 30.09 848 25.04 33.2 91.7 20 7.8 46
14:35 1019 30.09 848 25.04 32.5 90.6 20 6.9 44.5
14:40 1019 30.09 848 25.04 32.3 90.1 20 6.6 43.9
14:45 1019 30.09 848 25.04 32.1 89.8 19 5.9 42.5
14:50 1018 30.06 848 25.04 32.5 90.5 18 5.4 41.6
14:55 1018 30.06 847 25.01 32.7 90.9 16 3.8 38.8
15:00 1018 30.06 847 25.01 32.9 91.1 16 3.9 39.1
15:05 1018 30.06 847 25.01 33.4 92.1 16 4.3 39.8
15:10 1018 30.06 847 25.01 33.9 93.1 16 5 40.9
15:15 1018 30.06 847 25.01 34.2 93.6 15 4.1 39.5
15:20 1018 30.06 847 25.01 34.1 93.3 16 4.8 40.6
15:25 1018 30.06 847 25.01 34 93.2 15 4.3 39.7
15:30 1018 30.06 847 25.01 33.4 92.2 15 3.8 38.8
15:35 1018 30.06 847 25.01 33.7 92.6 15 4.2 39.6
15:40 1018 30.06 847 25.01 33.8 92.9 14 3.3 38
15:45 1018 30.06 847 25.01 33.5 92.2 15 3.9 39
15:50 1018 30.06 847 25.01 33.6 92.5 15 4 39.1
15:55 1018 30.06 847 25.01 33.8 92.8 14 3.5 38.3
16:00 1018 30.06 847 25.01 33.7 92.6 14 3.1 37.6
16:05 1018 30.06 847 25.01 33.8 92.9 14 3.3 37.9
16:10 1018 30.06 847 25.01 34 93.2 14 3 37.3
16:15 1017 30.03 847 25.01 34.6 94.2 14 3.4 38.2
16:20 1017 30.03 847 25.01 34.3 93.8 13 2.6 36.7
16:25 1017 30.03 847 25.01 34.3 93.7 14 3.1 37.6
16:30 1017 30.03 847 25.01 34.4 93.9 14 3.1 37.6
16:35 1017 30.03 846 24.98 34.6 94.3 13 3.2 37.7
16:40 1017 30.03 846 24.98 34.7 94.4 13 3 37.3
16:45 1017 30.03 846 24.98 34.4 94 14 3.5 38.2
16:50 1017 30.03 846 24.98 34.9 94.8 13 3 37.4
16:55 1017 30.03 846 24.98 35 94.9 13 3 37.3
17:00 1017 30.03 846 24.98 34.9 94.8 13 3.1 37.5
17:05 1017 30.03 846 24.98 35 95 14 3.8 38.8
17:10 1017 30.03 846 24.98 35.1 95.1 14 3.8 38.8
17:15 1017 30.03 846 24.98 34.9 94.8 14 3.9 39.1
17:20 1016 30 846 24.98 34.6 94.2 14 3.5 38.2
17:25 1016 30 846 24.98 34.3 93.7 14 3.7 38.7
17:30 1016 30 846 24.98 34.5 94 14 3.2 37.7
17:35 1016 30 845 24.95 34.9 94.8 13 3.3 38
17:40 1016 30 845 24.95 34.4 93.8 14 3.8 38.8
17:45 1016 30 845 24.95 34.2 93.5 14 3.7 38.7
17:50 1016 30 845 24.95 34.4 93.8 15 4.1 39.4
17:55 1016 30 845 24.95 34.4 93.9 14 3.1 37.5
18:00 1016 30 845 24.95 33.9 93.1 14 3.6 38.5
18:05 1016 30 845 24.95 34.3 93.8 14 3.6 38.4
18:10 1016 30 845 24.95 33.9 93.1 14 3.6 38.4
18:15 1016 30 845 24.95 33.1 91.5 15 3.2 37.8
18:20 1016 30 845 24.95 32.9 91.3 15 2.9 37.2
18:25 1016 30 845 24.95 33.4 92.1 14 3.1 37.6
18:30 1016 30 845 24.95 32.8 91 15 3.1 37.6
18:35 1016 30 845 24.95 33.1 91.5 14 2.8 37.1
18:40 1015 29.97 845 24.95 33.3 91.9 14 2.5 36.4
18:45 1015 29.97 845 24.95 33.5 92.3 14 2.9 37.2
18:50 1015 29.97 845 24.95 33.7 92.7 13 2.1 35.8
18:55 1015 29.97 844 24.92 33.5 92.2 14 2.8 37.1
19:00 1015 29.97 844 24.92 33.2 91.8 15 3.5 38.3
19:05 1015 29.97 844 24.92 32.8 91 14 2.2 36
19:10 1015 29.97 844 24.92 32.7 90.8 15 3.5 38.4
19:15 1015 29.97 844 24.92 32.8 91.1 14 2.3 36.2
19:20 1015 29.97 844 24.92 32.9 91.2 14 2.2 36
19:25 1016 30 845 24.95 32.8 91 19 6.3 43.4
19:30 1016 30 845 24.95 31.1 87.9 23 7.6 45.6
19:35 1016 30 845 24.95 29.6 85.3 26 8.2 46.8
19:40 1016 30 845 24.95 28.8 83.9 25 6.9 44.4
19:45 1016 30 845 24.95 28.9 84.1 24 6.8 44.2
19:50 1016 30 845 24.95 28.9 84 24 6.4 43.5
19:55 1016 30 845 24.95 29.4 85 22 6 42.9
20:00 1016 30 845 24.95 29.7 85.5 22 5.9 42.7
20:05 1016 30 845 24.95 29.6 85.3 22 5.9 42.7
20:10 1016 30 845 24.95 29.2 84.5 24 6.8 44.2
20:15 1016 30 845 24.95 28.6 83.4 25 7.1 44.8
20:20 1016 30 845 24.95 28.1 82.5 26 7.2 44.9
20:25 1016 30 845 24.95 27.7 81.8 27 7 44.6
20:30 1016 30 845 24.95 27.7 81.9 25 6 42.9
20:35 1016 30 845 24.95 28.1 82.6 24 6 42.7
20:40 1016 30 845 24.95 28.4 83 23 5.5 41.9
20:45 1016 30 845 24.95 28.6 83.4 23 5.7 42.3
20:50 1016 30 845 24.95 28.3 82.9 25 6.9 44.4
20:55 1016 30 845 24.95 27.6 81.7 28 7.8 46.1
21:00 1016 30 845 24.95 27.6 81.6 25 6 42.9
21:05 1015 29.97 845 24.95 27.8 82 26 6.7 44
21:10 1015 29.97 844 24.92 27.4 81.4 26 6.6 43.9
21:15 1015 29.97 844 24.92 27 80.6 25 5.7 42.3
21:20 1015 29.97 844 24.92 26.9 80.4 25 5.7 42.3
21:25 1015 29.97 844 24.92 26.8 80.3 26 6.2 43.1
21:30 1015 29.97 844 24.92 26.6 79.9 26 5.8 42.4
21:35 1015 29.97 844 24.92 26.4 79.4 26 5.7 42.2
21:40 1015 29.97 844 24.92 26.2 79.2 26 5.5 41.9
21:45 1015 29.97 844 24.92 26.5 79.6 26 5.4 41.8
21:50 1015 29.97 844 24.92 26.7 80 25 5.5 42
21:55 1015 29.97 844 24.92 26.8 80.2 24 4.9 40.8
22:00 1015 29.97 844 24.92 27.1 80.7 24 5.3 41.6
22:05 1015 29.97 844 24.92 26.8 80.3 25 5.4 41.8
22:10 1015 29.97 844 24.92 27.1 80.7 23 4.4 39.9
22:15 1015 29.97 844 24.92 27.4 81.2 24 5.1 41.2
22:20 1015 29.97 844 24.92 26.8 80.2 25 5.4 41.7
22:25 1015 29.97 844 24.92 26.4 79.6 26 5.7 42.3
22:30 1015 29.97 844 24.92 25.9 78.7 27 6 42.7
22:35 1015 29.97 844 24.92 25.8 78.4 27 5.8 42.5
22:40 1015 29.97 844 24.92 25.5 78 28 6 42.8
22:45 1015 29.97 844 24.92 25.4 77.7 28 6.1 42.9
22:50 1015 29.97 844 24.92 25.3 77.5 29 6.1 43
22:55 1015 29.97 844 24.92 25.2 77.4 29 6.1 42.9
23:00 1015 29.97 844 24.92 25.1 77.2 29 5.9 42.7
23:05 1015 29.97 844 24.92 25.1 77.2 29 6 42.9
23:10 1015 29.97 844 24.92 25.1 77.2 29 5.8 42.5
23:15 1015 29.97 844 24.92 25.2 77.3 28 5.7 42.2
23:20 1015 29.97 844 24.92 25.4 77.7 28 5.7 42.2
23:25 1015 29.97 844 24.92 25.4 77.7 28 5.9 42.6
23:30 1015 29.97 844 24.92 25.3 77.5 28 5.6 42.1
23:35 1015 29.97 844 24.92 25.4 77.6 28 6 42.9
23:40 1015 29.97 844 24.92 25 77 28 5.4 41.8
23:45 1015 29.97 844 24.92 24.8 76.7 31 6.6 43.8
23:50 1015 29.97 844 24.92 24.5 76.2 30 6 42.8
23:55 1015 29.97 844 24.92 24.4 75.9 29 5.6 42.1
24:00 1014 29.94 844 24.92 24.9 76.7 30 6.1 43